YUL weather

Montreal / Pierre Elliott Trudeau International Airport
Montréal, Quebec, Canada

Public forecast

Using degrees Celsius for public forecast. Weather courtesy of forecast.io.

METAR (pilot weather report)

Retrieved 2019/04/23 10:00 UTC (4 minutes ago):

CYUL 231000Z 03013KT 30SM BKN140 BKN180 06/M02 A3006 RMK AC6AC1 SLP183

TAF (pilot weather forecast)

Retrieved 2019/04/23 09:42 UTC (22 minutes ago):

TAF CYUL 230839Z 2309/2406 03015KT P6SM SCT150 FM231200 03012G22KT P6SM BKN100 FM231600 03012KT P6SM FEW030 BKN100 FM232100 06012KT P6SM BKN080 BECMG 2322/2324 06012G22KT FM240100 06012G22KT P6SM -RA OVC050 PROB30 2402/2404 21/2SM SHRA BR FM240400 06012KT 6SM -RA BR OVC030 RMK NXT FCST BY 231200Z